PWSweather.com
Personal Weather Stations
Station Observations
WXGLH1124
Southern Oaks, Indianapolis, IN 46217

Southern OaksIndianapolis, IN 46217

Lat: 39.65113, Lon: -86.16866

Elevation: 720

Station Type: Vantage Pro2

High Low Average
Temperature 50.9°F10.5°C 26.3°F-3.2°C 38.2°F3.4°C
Dew Point 31.2°F-0.4°C 23.2°F-4.9°C 27.0°F-2.8°C
Winds 6.0 mph 9.7 kmh Calm Calm 1.0 mph W1.6 kmh W
Wind Gusts 7.0 mph11.3 kmh -- 1.0 mph1.6 kmh
Humidity 91% 41% 67%
Pressure 30.51 in1033.2 mb 30.34 in1027.4 mb -
Precipitation 0.00 in0.0 mm - -
Hour Temp Dew Point Humidity Winds Wind Gusts Pressure Precip Precip Rate Daily Precip Total
12:00 AM 33.0°F0.6°C 26.3°F-3.2°C 76% Calm Calm -- 30.46 in1031.5 mb 0.00 in0.0 mm 0.00 in0.0 mm 0.00 in0.0 mm
12:05 AM 32.9°F0.5°C 26.5°F-3.1°C 77% Calm Calm -- 30.46 in1031.5 mb 0.00 in0.0 mm 0.00 in0.0 mm 0.00 in0.0 mm
12:09 AM 32.8°F0.4°C 26.4°F-3.1°C 77% Calm Calm -- 30.46 in1031.5 mb 0.00 in0.0 mm 0.00 in0.0 mm 0.00 in0.0 mm
12:15 AM 32.7°F0.4°C 26.3°F-3.2°C 77% Calm Calm -- 30.46 in1031.5 mb 0.00 in0.0 mm 0.00 in0.0 mm 0.00 in0.0 mm
12:19 AM 32.6°F0.3°C 26.2°F-3.2°C 77% Calm Calm -- 30.46 in1031.5 mb 0.00 in0.0 mm 0.00 in0.0 mm 0.00 in0.0 mm
12:25 AM 32.4°F0.2°C 26.3°F-3.2°C 78% Calm Calm -- 30.46 in1031.5 mb 0.00 in0.0 mm 0.00 in0.0 mm 0.00 in0.0 mm
12:30 AM 32.3°F0.2°C 26.2°F-3.2°C 78% Calm Calm -- 30.46 in1031.5 mb 0.00 in0.0 mm 0.00 in0.0 mm 0.00 in0.0 mm
12:35 AM 32.2°F0.1°C 26.1°F-3.3°C 78% Calm Calm -- 30.46 in1031.5 mb 0.00 in0.0 mm 0.00 in0.0 mm 0.00 in0.0 mm
12:40 AM 32.0°F0.0°C 25.9°F-3.4°C 78% Calm Calm -- 30.46 in1031.5 mb 0.00 in0.0 mm 0.00 in0.0 mm 0.00 in0.0 mm
12:44 AM 31.9°F-0.1°C 26.1°F-3.3°C 79% Calm Calm -- 30.46 in1031.5 mb 0.00 in0.0 mm 0.00 in0.0 mm 0.00 in0.0 mm
12:50 AM 31.7°F-0.2°C 25.9°F-3.4°C 79% Calm Calm -- 30.46 in1031.5 mb 0.00 in0.0 mm 0.00 in0.0 mm 0.00 in0.0 mm
12:55 AM 31.6°F-0.2°C 25.9°F-3.4°C 79% Calm Calm -- 30.46 in1031.5 mb 0.00 in0.0 mm 0.00 in0.0 mm 0.00 in0.0 mm
01:00 AM 31.5°F-0.3°C 26.1°F-3.3°C 80% Calm Calm -- 30.46 in1031.5 mb 0.00 in0.0 mm 0.00 in0.0 mm 0.00 in0.0 mm
01:05 AM 31.4°F-0.3°C 26.0°F-3.3°C 80% Calm Calm -- 30.46 in1031.5 mb 0.00 in0.0 mm 0.00 in0.0 mm 0.00 in0.0 mm
01:10 AM 31.3°F-0.4°C 25.9°F-3.4°C 80% Calm Calm -- 30.46 in1031.5 mb 0.00 in0.0 mm 0.00 in0.0 mm 0.00 in0.0 mm
01:15 AM 31.1°F-0.5°C 25.7°F-3.5°C 80% Calm Calm -- 30.46 in1031.5 mb 0.00 in0.0 mm 0.00 in0.0 mm 0.00 in0.0 mm
01:20 AM 31.0°F-0.6°C 25.6°F-3.6°C 80% Calm Calm -- 30.46 in1031.5 mb 0.00 in0.0 mm 0.00 in0.0 mm 0.00 in0.0 mm
01:25 AM 30.9°F-0.6°C 25.5°F-3.6°C 80% Calm Calm -- 30.46 in1031.5 mb 0.00 in0.0 mm 0.00 in0.0 mm 0.00 in0.0 mm
01:30 AM 30.8°F-0.7°C 25.7°F-3.5°C 81% Calm Calm -- 30.45 in1031.2 mb 0.00 in0.0 mm 0.00 in0.0 mm 0.00 in0.0 mm
01:35 AM 30.6°F-0.8°C 25.5°F-3.6°C 81% Calm Calm -- 30.45 in1031.2 mb 0.00 in0.0 mm 0.00 in0.0 mm 0.00 in0.0 mm
01:40 AM 30.5°F-0.8°C 25.4°F-3.7°C 81% Calm Calm -- 30.45 in1031.2 mb 0.00 in0.0 mm 0.00 in0.0 mm 0.00 in0.0 mm
01:45 AM 30.4°F-0.9°C 25.3°F-3.7°C 81% Calm Calm -- 30.45 in1031.2 mb 0.00 in0.0 mm 0.00 in0.0 mm 0.00 in0.0 mm
01:50 AM 30.2°F-1.0°C 25.1°F-3.8°C 81% Calm Calm -- 30.45 in1031.2 mb 0.00 in0.0 mm 0.00 in0.0 mm 0.00 in0.0 mm
01:55 AM 30.1°F-1.1°C 25.3°F-3.7°C 82% Calm Calm -- 30.45 in1031.2 mb 0.00 in0.0 mm 0.00 in0.0 mm 0.00 in0.0 mm
02:00 AM 30.0°F-1.1°C 25.2°F-3.8°C 82% Calm Calm -- 30.45 in1031.2 mb 0.00 in0.0 mm 0.00 in0.0 mm 0.00 in0.0 mm
02:05 AM 29.9°F-1.2°C 25.1°F-3.8°C 82% Calm Calm -- 30.45 in1031.2 mb 0.00 in0.0 mm 0.00 in0.0 mm 0.00 in0.0 mm
02:10 AM 29.8°F-1.2°C 25.0°F-3.9°C 82% Calm Calm -- 30.45 in1031.2 mb 0.00 in0.0 mm 0.00 in0.0 mm 0.00 in0.0 mm
02:15 AM 29.8°F-1.2°C 25.3°F-3.7°C 83% Calm Calm -- 30.45 in1031.2 mb 0.00 in0.0 mm 0.00 in0.0 mm 0.00 in0.0 mm
02:20 AM 29.7°F-1.3°C 25.2°F-3.8°C 83% Calm Calm -- 30.46 in1031.5 mb 0.00 in0.0 mm 0.00 in0.0 mm 0.00 in0.0 mm
02:25 AM 29.6°F-1.3°C 25.1°F-3.8°C 83% Calm Calm -- 30.46 in1031.5 mb 0.00 in0.0 mm 0.00 in0.0 mm 0.00 in0.0 mm
02:30 AM 29.4°F-1.4°C 24.9°F-3.9°C 83% Calm Calm -- 30.46 in1031.5 mb 0.00 in0.0 mm 0.00 in0.0 mm 0.00 in0.0 mm
02:34 AM 29.4°F-1.4°C 24.9°F-3.9°C 83% Calm Calm -- 30.46 in1031.5 mb 0.00 in0.0 mm 0.00 in0.0 mm 0.00 in0.0 mm
02:40 AM 29.3°F-1.5°C 24.8°F-4.0°C 83% Calm Calm -- 30.46 in1031.5 mb 0.00 in0.0 mm 0.00 in0.0 mm 0.00 in0.0 mm
02:45 AM 29.2°F-1.6°C 24.7°F-4.1°C 83% Calm Calm -- 30.46 in1031.5 mb 0.00 in0.0 mm 0.00 in0.0 mm 0.00 in0.0 mm
02:49 AM 29.2°F-1.6°C 25.0°F-3.9°C 84% Calm Calm -- 30.46 in1031.5 mb 0.00 in0.0 mm 0.00 in0.0 mm 0.00 in0.0 mm
02:54 AM 29.1°F-1.6°C 24.9°F-3.9°C 84% Calm Calm -- 30.46 in1031.5 mb 0.00 in0.0 mm 0.00 in0.0 mm 0.00 in0.0 mm
03:00 AM 29.0°F-1.7°C 24.8°F-4.0°C 84% Calm Calm -- 30.46 in1031.5 mb 0.00 in0.0 mm 0.00 in0.0 mm 0.00 in0.0 mm
03:05 AM 28.8°F-1.8°C 24.6°F-4.1°C 84% Calm Calm -- 30.46 in1031.5 mb 0.00 in0.0 mm 0.00 in0.0 mm 0.00 in0.0 mm
03:10 AM 28.8°F-1.8°C 24.6°F-4.1°C 84% Calm Calm -- 30.46 in1031.5 mb 0.00 in0.0 mm 0.00 in0.0 mm 0.00 in0.0 mm
03:14 AM 28.8°F-1.8°C 24.6°F-4.1°C 84% Calm Calm -- 30.46 in1031.5 mb 0.00 in0.0 mm 0.00 in0.0 mm 0.00 in0.0 mm
03:20 AM 28.8°F-1.8°C 24.6°F-4.1°C 84% Calm Calm -- 30.46 in1031.5 mb 0.00 in0.0 mm 0.00 in0.0 mm 0.00 in0.0 mm
03:25 AM 28.8°F-1.8°C 24.6°F-4.1°C 84% Calm Calm -- 30.45 in1031.2 mb 0.00 in0.0 mm 0.00 in0.0 mm 0.00 in0.0 mm
03:30 AM 28.7°F-1.8°C 24.8°F-4.0°C 85% Calm Calm -- 30.45 in1031.2 mb 0.00 in0.0 mm 0.00 in0.0 mm 0.00 in0.0 mm
03:35 AM 28.7°F-1.8°C 24.8°F-4.0°C 85% Calm Calm -- 30.45 in1031.2 mb 0.00 in0.0 mm 0.00 in0.0 mm 0.00 in0.0 mm
03:40 AM 28.7°F-1.8°C 24.8°F-4.0°C 85% Calm Calm -- 30.45 in1031.2 mb 0.00 in0.0 mm 0.00 in0.0 mm 0.00 in0.0 mm
03:45 AM 28.7°F-1.8°C 24.8°F-4.0°C 85% Calm Calm -- 30.45 in1031.2 mb 0.00 in0.0 mm 0.00 in0.0 mm 0.00 in0.0 mm
03:50 AM 28.7°F-1.8°C 24.8°F-4.0°C 85% Calm Calm -- 30.45 in1031.2 mb 0.00 in0.0 mm 0.00 in0.0 mm 0.00 in0.0 mm
03:54 AM 28.7°F-1.8°C 24.8°F-4.0°C 85% Calm Calm -- 30.44 in1030.8 mb 0.00 in0.0 mm 0.00 in0.0 mm 0.00 in0.0 mm
04:00 AM 28.6°F-1.9°C 24.7°F-4.1°C 85% Calm Calm -- 30.44 in1030.8 mb 0.00 in0.0 mm 0.00 in0.0 mm 0.00 in0.0 mm
04:05 AM 28.6°F-1.9°C 24.7°F-4.1°C 85% Calm Calm -- 30.44 in1030.8 mb 0.00 in0.0 mm 0.00 in0.0 mm 0.00 in0.0 mm
04:10 AM 28.6°F-1.9°C 24.7°F-4.1°C 85% Calm Calm -- 30.44 in1030.8 mb 0.00 in0.0 mm 0.00 in0.0 mm 0.00 in0.0 mm
04:15 AM 28.6°F-1.9°C 25.0°F-3.9°C 86% Calm Calm -- 30.44 in1030.8 mb 0.00 in0.0 mm 0.00 in0.0 mm 0.00 in0.0 mm
04:20 AM 28.5°F-1.9°C 24.6°F-4.1°C 85% Calm Calm -- 30.44 in1030.8 mb 0.00 in0.0 mm 0.00 in0.0 mm 0.00 in0.0 mm
04:25 AM 28.6°F-1.9°C 25.0°F-3.9°C 86% Calm Calm -- 30.43 in1030.5 mb 0.00 in0.0 mm 0.00 in0.0 mm 0.00 in0.0 mm
04:30 AM 28.5°F-1.9°C 24.9°F-3.9°C 86% Calm Calm -- 30.43 in1030.5 mb 0.00 in0.0 mm 0.00 in0.0 mm 0.00 in0.0 mm
04:35 AM 28.4°F-2.0°C 24.8°F-4.0°C 86% Calm Calm -- 30.43 in1030.5 mb 0.00 in0.0 mm 0.00 in0.0 mm 0.00 in0.0 mm
04:40 AM 28.3°F-2.1°C 24.7°F-4.1°C 86% Calm Calm -- 30.43 in1030.5 mb 0.00 in0.0 mm 0.00 in0.0 mm 0.00 in0.0 mm
04:45 AM 28.2°F-2.1°C 24.6°F-4.1°C 86% Calm Calm -- 30.43 in1030.5 mb 0.00 in0.0 mm 0.00 in0.0 mm 0.00 in0.0 mm
04:50 AM 28.1°F-2.2°C 24.5°F-4.2°C 86% Calm Calm -- 30.42 in1030.1 mb 0.00 in0.0 mm 0.00 in0.0 mm 0.00 in0.0 mm
04:55 AM 28.0°F-2.2°C 24.4°F-4.2°C 86% Calm Calm -- 30.42 in1030.1 mb 0.00 in0.0 mm 0.00 in0.0 mm 0.00 in0.0 mm
05:00 AM 27.8°F-2.3°C 24.2°F-4.3°C 86% Calm Calm -- 30.42 in1030.1 mb 0.00 in0.0 mm 0.00 in0.0 mm 0.00 in0.0 mm
05:05 AM 27.8°F-2.3°C 24.2°F-4.3°C 86% Calm Calm -- 30.42 in1030.1 mb 0.00 in0.0 mm 0.00 in0.0 mm 0.00 in0.0 mm
05:10 AM 27.6°F-2.4°C 24.0°F-4.4°C 86% Calm Calm -- 30.42 in1030.1 mb 0.00 in0.0 mm 0.00 in0.0 mm 0.00 in0.0 mm
05:15 AM 27.5°F-2.5°C 23.9°F-4.5°C 86% Calm Calm -- 30.42 in1030.1 mb 0.00 in0.0 mm 0.00 in0.0 mm 0.00 in0.0 mm
05:20 AM 27.4°F-2.6°C 23.8°F-4.6°C 86% Calm Calm -- 30.42 in1030.1 mb 0.00 in0.0 mm 0.00 in0.0 mm 0.00 in0.0 mm
05:24 AM 27.1°F-2.7°C 23.5°F-4.7°C 86% Calm Calm -- 30.43 in1030.5 mb 0.00 in0.0 mm 0.00 in0.0 mm 0.00 in0.0 mm
05:29 AM 27.0°F-2.8°C 23.7°F-4.6°C 87% Calm Calm -- 30.43 in1030.5 mb 0.00 in0.0 mm 0.00 in0.0 mm 0.00 in0.0 mm
05:35 AM 27.0°F-2.8°C 23.7°F-4.6°C 87% Calm Calm -- 30.42 in1030.1 mb 0.00 in0.0 mm 0.00 in0.0 mm 0.00 in0.0 mm
05:40 AM 27.0°F-2.8°C 23.7°F-4.6°C 87% Calm Calm -- 30.42 in1030.1 mb 0.00 in0.0 mm 0.00 in0.0 mm 0.00 in0.0 mm
05:45 AM 27.0°F-2.8°C 23.7°F-4.6°C 87% Calm Calm -- 30.42 in1030.1 mb 0.00 in0.0 mm 0.00 in0.0 mm 0.00 in0.0 mm
05:50 AM 26.9°F-2.8°C 23.6°F-4.7°C 87% Calm Calm -- 30.43 in1030.5 mb 0.00 in0.0 mm 0.00 in0.0 mm 0.00 in0.0 mm
05:55 AM 26.9°F-2.8°C 23.8°F-4.6°C 88% Calm Calm -- 30.43 in1030.5 mb 0.00 in0.0 mm 0.00 in0.0 mm 0.00 in0.0 mm
06:00 AM 26.9°F-2.8°C 23.6°F-4.7°C 87% Calm Calm -- 30.43 in1030.5 mb 0.00 in0.0 mm 0.00 in0.0 mm 0.00 in0.0 mm
06:05 AM 26.7°F-2.9°C 23.4°F-4.8°C 87% Calm Calm -- 30.44 in1030.8 mb 0.00 in0.0 mm 0.00 in0.0 mm 0.00 in0.0 mm
06:10 AM 26.7°F-2.9°C 23.4°F-4.8°C 87% Calm Calm -- 30.44 in1030.8 mb 0.00 in0.0 mm 0.00 in0.0 mm 0.00 in0.0 mm
06:14 AM 26.7°F-2.9°C 23.6°F-4.7°C 88% Calm Calm -- 30.44 in1030.8 mb 0.00 in0.0 mm 0.00 in0.0 mm 0.00 in0.0 mm
06:20 AM 26.7°F-2.9°C 23.6°F-4.7°C 88% Calm Calm -- 30.44 in1030.8 mb 0.00 in0.0 mm 0.00 in0.0 mm 0.00 in0.0 mm
06:24 AM 26.7°F-2.9°C 23.6°F-4.7°C 88% Calm Calm -- 30.44 in1030.8 mb 0.00 in0.0 mm 0.00 in0.0 mm 0.00 in0.0 mm
06:30 AM 26.8°F-2.9°C 23.7°F-4.6°C 88% Calm Calm -- 30.44 in1030.8 mb 0.00 in0.0 mm 0.00 in0.0 mm 0.00 in0.0 mm
06:35 AM 26.8°F-2.9°C 23.7°F-4.6°C 88% Calm Calm -- 30.44 in1030.8 mb 0.00 in0.0 mm 0.00 in0.0 mm 0.00 in0.0 mm
06:40 AM 26.7°F-2.9°C 23.6°F-4.7°C 88% Calm Calm -- 30.45 in1031.2 mb 0.00 in0.0 mm 0.00 in0.0 mm 0.00 in0.0 mm
06:44 AM 26.7°F-2.9°C 23.6°F-4.7°C 88% Calm Calm -- 30.45 in1031.2 mb 0.00 in0.0 mm 0.00 in0.0 mm 0.00 in0.0 mm
06:50 AM 26.6°F-3.0°C 23.5°F-4.7°C 88% Calm Calm -- 30.45 in1031.2 mb 0.00 in0.0 mm 0.00 in0.0 mm 0.00 in0.0 mm
06:55 AM 26.5°F-3.1°C 23.4°F-4.8°C 88% Calm Calm -- 30.45 in1031.2 mb 0.00 in0.0 mm 0.00 in0.0 mm 0.00 in0.0 mm
07:00 AM 26.5°F-3.1°C 23.4°F-4.8°C 88% Calm Calm -- 30.45 in1031.2 mb 0.00 in0.0 mm 0.00 in0.0 mm 0.00 in0.0 mm
07:05 AM 26.5°F-3.1°C 23.4°F-4.8°C 88% Calm Calm -- 30.45 in1031.2 mb 0.00 in0.0 mm 0.00 in0.0 mm 0.00 in0.0 mm
07:10 AM 26.4°F-3.1°C 23.3°F-4.8°C 88% Calm Calm -- 30.45 in1031.2 mb 0.00 in0.0 mm 0.00 in0.0 mm 0.00 in0.0 mm
07:15 AM 26.3°F-3.2°C 23.2°F-4.9°C 88% Calm Calm -- 30.45 in1031.2 mb 0.00 in0.0 mm 0.00 in0.0 mm 0.00 in0.0 mm
07:19 AM 26.3°F-3.2°C 23.2°F-4.9°C 88% Calm Calm -- 30.45 in1031.2 mb 0.00 in0.0 mm 0.00 in0.0 mm 0.00 in0.0 mm
07:25 AM 26.3°F-3.2°C 23.5°F-4.7°C 89% Calm Calm -- 30.45 in1031.2 mb 0.00 in0.0 mm 0.00 in0.0 mm 0.00 in0.0 mm
07:30 AM 26.4°F-3.1°C 23.6°F-4.7°C 89% Calm Calm -- 30.46 in1031.5 mb 0.00 in0.0 mm 0.00 in0.0 mm 0.00 in0.0 mm
07:35 AM 26.4°F-3.1°C 23.6°F-4.7°C 89% Calm Calm -- 30.46 in1031.5 mb 0.00 in0.0 mm 0.00 in0.0 mm 0.00 in0.0 mm
07:40 AM 26.5°F-3.1°C 23.7°F-4.6°C 89% Calm Calm -- 30.46 in1031.5 mb 0.00 in0.0 mm 0.00 in0.0 mm 0.00 in0.0 mm
07:45 AM 26.5°F-3.1°C 23.7°F-4.6°C 89% Calm Calm -- 30.46 in1031.5 mb 0.00 in0.0 mm 0.00 in0.0 mm 0.00 in0.0 mm
07:50 AM 26.4°F-3.1°C 23.6°F-4.7°C 89% Calm Calm -- 30.46 in1031.5 mb 0.00 in0.0 mm 0.00 in0.0 mm 0.00 in0.0 mm
07:55 AM 26.4°F-3.1°C 23.6°F-4.7°C 89% Calm Calm -- 30.46 in1031.5 mb 0.00 in0.0 mm 0.00 in0.0 mm 0.00 in0.0 mm
08:00 AM 26.4°F-3.1°C 23.6°F-4.7°C 89% Calm Calm -- 30.46 in1031.5 mb 0.00 in0.0 mm 0.00 in0.0 mm 0.00 in0.0 mm
08:04 AM 26.4°F-3.1°C 23.6°F-4.7°C 89% Calm Calm -- 30.47 in1031.8 mb 0.00 in0.0 mm 0.00 in0.0 mm 0.00 in0.0 mm
08:09 AM 26.3°F-3.2°C 23.5°F-4.7°C 89% Calm Calm -- 30.47 in1031.8 mb 0.00 in0.0 mm 0.00 in0.0 mm 0.00 in0.0 mm
08:15 AM 26.4°F-3.1°C 23.6°F-4.7°C 89% Calm Calm -- 30.47 in1031.8 mb 0.00 in0.0 mm 0.00 in0.0 mm 0.00 in0.0 mm
08:19 AM 26.4°F-3.1°C 23.6°F-4.7°C 89% Calm Calm -- 30.47 in1031.8 mb 0.00 in0.0 mm 0.00 in0.0 mm 0.00 in0.0 mm
08:25 AM 26.4°F-3.1°C 23.6°F-4.7°C 89% Calm Calm -- 30.47 in1031.8 mb 0.00 in0.0 mm 0.00 in0.0 mm 0.00 in0.0 mm
08:29 AM 26.4°F-3.1°C 23.6°F-4.7°C 89% Calm Calm -- 30.47 in1031.8 mb 0.00 in0.0 mm 0.00 in0.0 mm 0.00 in0.0 mm
08:35 AM 26.5°F-3.1°C 23.7°F-4.6°C 89% Calm Calm -- 30.47 in1031.8 mb 0.00 in0.0 mm 0.00 in0.0 mm 0.00 in0.0 mm
08:40 AM 26.5°F-3.1°C 23.7°F-4.6°C 89% Calm Calm -- 30.47 in1031.8 mb 0.00 in0.0 mm 0.00 in0.0 mm 0.00 in0.0 mm
08:45 AM 26.5°F-3.1°C 23.7°F-4.6°C 89% Calm Calm -- 30.48 in1032.2 mb 0.00 in0.0 mm 0.00 in0.0 mm 0.00 in0.0 mm
08:50 AM 26.7°F-2.9°C 23.9°F-4.5°C 89% Calm Calm -- 30.48 in1032.2 mb 0.00 in0.0 mm 0.00 in0.0 mm 0.00 in0.0 mm
08:55 AM 26.8°F-2.9°C 24.0°F-4.4°C 89% Calm Calm -- 30.48 in1032.2 mb 0.00 in0.0 mm 0.00 in0.0 mm 0.00 in0.0 mm
09:00 AM 27.1°F-2.7°C 24.6°F-4.1°C 90% Calm Calm -- 30.48 in1032.2 mb 0.00 in0.0 mm 0.00 in0.0 mm 0.00 in0.0 mm
09:05 AM 27.5°F-2.5°C 25.0°F-3.9°C 90% Calm Calm -- 30.49 in1032.5 mb 0.00 in0.0 mm 0.00 in0.0 mm 0.00 in0.0 mm
09:10 AM 27.9°F-2.3°C 25.4°F-3.7°C 90% Calm Calm -- 30.49 in1032.5 mb 0.00 in0.0 mm 0.00 in0.0 mm 0.00 in0.0 mm
09:15 AM 28.4°F-2.0°C 25.9°F-3.4°C 90% Calm Calm -- 30.49 in1032.5 mb 0.00 in0.0 mm 0.00 in0.0 mm 0.00 in0.0 mm
09:20 AM 28.8°F-1.8°C 26.2°F-3.2°C 90% Calm Calm -- 30.49 in1032.5 mb 0.00 in0.0 mm 0.00 in0.0 mm 0.00 in0.0 mm
09:25 AM 29.4°F-1.4°C 26.8°F-2.9°C 90% Calm Calm -- 30.49 in1032.5 mb 0.00 in0.0 mm 0.00 in0.0 mm 0.00 in0.0 mm
09:30 AM 30.0°F-1.1°C 27.7°F-2.4°C 91% Calm Calm -- 30.49 in1032.5 mb 0.00 in0.0 mm 0.00 in0.0 mm 0.00 in0.0 mm
09:35 AM 30.7°F-0.7°C 28.1°F-2.2°C 90% Calm Calm -- 30.49 in1032.5 mb 0.00 in0.0 mm 0.00 in0.0 mm 0.00 in0.0 mm
09:40 AM 31.2°F-0.4°C 28.6°F-1.9°C 90% Calm Calm -- 30.49 in1032.5 mb 0.00 in0.0 mm 0.00 in0.0 mm 0.00 in0.0 mm
09:45 AM 31.8°F-0.1°C 29.2°F-1.6°C 90% Calm Calm -- 30.49 in1032.5 mb 0.00 in0.0 mm 0.00 in0.0 mm 0.00 in0.0 mm
09:50 AM 32.5°F0.3°C 29.9°F-1.2°C 90% Calm Calm -- 30.49 in1032.5 mb 0.00 in0.0 mm 0.00 in0.0 mm 0.00 in0.0 mm
09:55 AM 33.4°F0.8°C 30.5°F-0.8°C 89% Calm Calm -- 30.49 in1032.5 mb 0.00 in0.0 mm 0.00 in0.0 mm 0.00 in0.0 mm
09:59 AM 34.2°F1.2°C 30.7°F-0.7°C 87% Calm Calm -- 30.49 in1032.5 mb 0.00 in0.0 mm 0.00 in0.0 mm 0.00 in0.0 mm
10:05 AM 34.8°F1.6°C 30.8°F-0.7°C 85% 3.0 mph WNW4.8 kmh WNW 3.0 mph4.8 kmh 30.49 in1032.5 mb 0.00 in0.0 mm 0.00 in0.0 mm 0.00 in0.0 mm
10:09 AM 35.2°F1.8°C 30.3°F-0.9°C 82% Calm Calm -- 30.50 in1032.8 mb 0.00 in0.0 mm 0.00 in0.0 mm 0.00 in0.0 mm
10:15 AM 35.8°F2.1°C 30.6°F-0.8°C 81% 1.0 mph W1.6 kmh W 1.0 mph1.6 kmh 30.50 in1032.8 mb 0.00 in0.0 mm 0.00 in0.0 mm 0.00 in0.0 mm
10:20 AM 36.4°F2.4°C 30.5°F-0.8°C 79% 1.0 mph W1.6 kmh W 1.0 mph1.6 kmh 30.50 in1032.8 mb 0.00 in0.0 mm 0.00 in0.0 mm 0.00 in0.0 mm
10:25 AM 37.1°F2.8°C 31.2°F-0.4°C 79% 2.0 mph W3.2 kmh W 3.0 mph4.8 kmh 30.50 in1032.8 mb 0.00 in0.0 mm 0.00 in0.0 mm 0.00 in0.0 mm
10:30 AM 37.5°F3.1°C 31.0°F-0.6°C 77% 2.0 mph W3.2 kmh W 2.0 mph3.2 kmh 30.50 in1032.8 mb 0.00 in0.0 mm 0.00 in0.0 mm 0.00 in0.0 mm
10:35 AM 38.0°F3.3°C 30.8°F-0.7°C 75% 1.0 mph W1.6 kmh W 2.0 mph3.2 kmh 30.50 in1032.8 mb 0.00 in0.0 mm 0.00 in0.0 mm 0.00 in0.0 mm
10:40 AM 38.4°F3.6°C 30.5°F-0.8°C 73% Calm Calm 1.0 mph1.6 kmh 30.50 in1032.8 mb 0.00 in0.0 mm 0.00 in0.0 mm 0.00 in0.0 mm
10:45 AM 38.9°F3.8°C 30.7°F-0.7°C 72% Calm Calm -- 30.50 in1032.8 mb 0.00 in0.0 mm 0.00 in0.0 mm 0.00 in0.0 mm
10:49 AM 39.2°F4.0°C 30.3°F-0.9°C 70% Calm Calm -- 30.50 in1032.8 mb 0.00 in0.0 mm 0.00 in0.0 mm 0.00 in0.0 mm
10:55 AM 39.6°F4.2°C 30.3°F-0.9°C 69% Calm Calm -- 30.50 in1032.8 mb 0.00 in0.0 mm 0.00 in0.0 mm 0.00 in0.0 mm
11:00 AM 40.0°F4.4°C 30.3°F-0.9°C 68% Calm Calm 1.0 mph1.6 kmh 30.51 in1033.2 mb 0.00 in0.0 mm 0.00 in0.0 mm 0.00 in0.0 mm
11:05 AM 40.7°F4.8°C 29.9°F-1.2°C 65% 2.0 mph SSW3.2 kmh SSW 2.0 mph3.2 kmh 30.51 in1033.2 mb 0.00 in0.0 mm 0.00 in0.0 mm 0.00 in0.0 mm
11:10 AM 41.0°F5.0°C 30.2°F-1.0°C 65% Calm Calm -- 30.51 in1033.2 mb 0.00 in0.0 mm 0.00 in0.0 mm 0.00 in0.0 mm
11:15 AM 41.5°F5.3°C 30.6°F-0.8°C 65% Calm Calm -- 30.51 in1033.2 mb 0.00 in0.0 mm 0.00 in0.0 mm 0.00 in0.0 mm
11:19 AM 41.9°F5.5°C 30.2°F-1.0°C 63% 1.0 mph SSW1.6 kmh SSW 2.0 mph3.2 kmh 30.51 in1033.2 mb 0.00 in0.0 mm 0.00 in0.0 mm 0.00 in0.0 mm
11:24 AM 42.3°F5.7°C 30.2°F-1.0°C 62% Calm Calm 1.0 mph1.6 kmh 30.50 in1032.8 mb 0.00 in0.0 mm 0.00 in0.0 mm 0.00 in0.0 mm
11:30 AM 42.9°F6.1°C 30.0°F-1.1°C 60% 4.0 mph SSE6.4 kmh SSE 4.0 mph6.4 kmh 30.50 in1032.8 mb 0.00 in0.0 mm 0.00 in0.0 mm 0.00 in0.0 mm
11:35 AM 43.0°F6.1°C 29.3°F-1.5°C 58% 1.0 mph SSE1.6 kmh SSE 1.0 mph1.6 kmh 30.50 in1032.8 mb 0.00 in0.0 mm 0.00 in0.0 mm 0.00 in0.0 mm
11:40 AM 43.4°F6.3°C 30.0°F-1.1°C 59% 2.0 mph S3.2 kmh S 5.0 mph8.0 kmh 30.50 in1032.8 mb 0.00 in0.0 mm 0.00 in0.0 mm 0.00 in0.0 mm
11:45 AM 43.5°F6.4°C 29.7°F-1.3°C 58% 3.0 mph SW4.8 kmh SW 3.0 mph4.8 kmh 30.50 in1032.8 mb 0.00 in0.0 mm 0.00 in0.0 mm 0.00 in0.0 mm
11:50 AM 43.8°F6.6°C 30.0°F-1.1°C 58% Calm Calm -- 30.50 in1032.8 mb 0.00 in0.0 mm 0.00 in0.0 mm 0.00 in0.0 mm
11:55 AM 43.9°F6.6°C 28.4°F-2.0°C 54% Calm Calm 1.0 mph1.6 kmh 30.50 in1032.8 mb 0.00 in0.0 mm 0.00 in0.0 mm 0.00 in0.0 mm
12:00 PM 44.4°F6.9°C 29.7°F-1.3°C 56% Calm Calm -- 30.50 in1032.8 mb 0.00 in0.0 mm 0.00 in0.0 mm 0.00 in0.0 mm
12:04 PM 44.8°F7.1°C 29.2°F-1.6°C 54% Calm Calm 2.0 mph3.2 kmh 30.50 in1032.8 mb 0.00 in0.0 mm 0.00 in0.0 mm 0.00 in0.0 mm
12:10 PM 45.0°F7.2°C 28.9°F-1.7°C 53% Calm Calm 2.0 mph3.2 kmh 30.50 in1032.8 mb 0.00 in0.0 mm 0.00 in0.0 mm 0.00 in0.0 mm
12:15 PM 45.0°F7.2°C 29.4°F-1.4°C 54% 1.0 mph SSW1.6 kmh SSW 1.0 mph1.6 kmh 30.50 in1032.8 mb 0.00 in0.0 mm 0.00 in0.0 mm 0.00 in0.0 mm
12:20 PM 45.2°F7.3°C 29.6°F-1.3°C 54% Calm Calm 1.0 mph1.6 kmh 30.50 in1032.8 mb 0.00 in0.0 mm 0.00 in0.0 mm 0.00 in0.0 mm
12:25 PM 45.4°F7.4°C 29.7°F-1.3°C 54% 3.0 mph SSW4.8 kmh SSW 4.0 mph6.4 kmh 30.49 in1032.5 mb 0.00 in0.0 mm 0.00 in0.0 mm 0.00 in0.0 mm
12:29 PM 45.6°F7.6°C 29.9°F-1.2°C 54% 5.0 mph SW8.0 kmh SW 5.0 mph8.0 kmh 30.49 in1032.5 mb 0.00 in0.0 mm 0.00 in0.0 mm 0.00 in0.0 mm
12:35 PM 45.6°F7.6°C 29.9°F-1.2°C 54% 1.0 mph SW1.6 kmh SW 2.0 mph3.2 kmh 30.49 in1032.5 mb 0.00 in0.0 mm 0.00 in0.0 mm 0.00 in0.0 mm
12:40 PM 46.1°F7.8°C 29.5°F-1.4°C 52% 3.0 mph WSW4.8 kmh WSW 3.0 mph4.8 kmh 30.49 in1032.5 mb 0.00 in0.0 mm 0.00 in0.0 mm 0.00 in0.0 mm
12:45 PM 46.2°F7.9°C 30.0°F-1.1°C 53% 2.0 mph WSW3.2 kmh WSW 5.0 mph8.0 kmh 30.49 in1032.5 mb 0.00 in0.0 mm 0.00 in0.0 mm 0.00 in0.0 mm
12:49 PM 45.9°F7.7°C 28.8°F-1.8°C 51% 2.0 mph SW3.2 kmh SW 2.0 mph3.2 kmh 30.49 in1032.5 mb 0.00 in0.0 mm 0.00 in0.0 mm 0.00 in0.0 mm
12:55 PM 46.2°F7.9°C 29.1°F-1.6°C 51% 4.0 mph S6.4 kmh S 5.0 mph8.0 kmh 30.49 in1032.5 mb 0.00 in0.0 mm 0.00 in0.0 mm 0.00 in0.0 mm
01:00 PM 46.2°F7.9°C 29.6°F-1.3°C 52% Calm Calm -- 30.49 in1032.5 mb 0.00 in0.0 mm 0.00 in0.0 mm 0.00 in0.0 mm
01:05 PM 46.5°F8.1°C 29.4°F-1.4°C 51% Calm Calm -- 30.49 in1032.5 mb 0.00 in0.0 mm 0.00 in0.0 mm 0.00 in0.0 mm
01:10 PM 46.8°F8.2°C 29.2°F-1.6°C 50% Calm Calm 1.0 mph1.6 kmh 30.48 in1032.2 mb 0.00 in0.0 mm 0.00 in0.0 mm 0.00 in0.0 mm
01:15 PM 46.5°F8.1°C 28.4°F-2.0°C 49% 1.0 mph SW1.6 kmh SW 4.0 mph6.4 kmh 30.49 in1032.5 mb 0.00 in0.0 mm 0.00 in0.0 mm 0.00 in0.0 mm
01:20 PM 46.2°F7.9°C 28.6°F-1.9°C 50% 1.0 mph NW1.6 kmh NW 2.0 mph3.2 kmh 30.49 in1032.5 mb 0.00 in0.0 mm 0.00 in0.0 mm 0.00 in0.0 mm
01:25 PM 46.3°F7.9°C 28.7°F-1.8°C 50% 4.0 mph N6.4 kmh N 4.0 mph6.4 kmh 30.48 in1032.2 mb 0.00 in0.0 mm 0.00 in0.0 mm 0.00 in0.0 mm
01:30 PM 46.4°F8.0°C 28.3°F-2.1°C 49% Calm Calm 1.0 mph1.6 kmh 30.48 in1032.2 mb 0.00 in0.0 mm 0.00 in0.0 mm 0.00 in0.0 mm
01:35 PM 46.7°F8.2°C 28.1°F-2.2°C 48% 1.0 mph WSW1.6 kmh WSW 1.0 mph1.6 kmh 30.48 in1032.2 mb 0.00 in0.0 mm 0.00 in0.0 mm 0.00 in0.0 mm
01:40 PM 47.2°F8.4°C 30.0°F-1.1°C 51% 6.0 mph SW9.7 kmh SW 6.0 mph9.7 kmh 30.48 in1032.2 mb 0.00 in0.0 mm 0.00 in0.0 mm 0.00 in0.0 mm
01:45 PM 46.9°F8.3°C 28.8°F-1.8°C 49% Calm Calm -- 30.48 in1032.2 mb 0.00 in0.0 mm 0.00 in0.0 mm 0.00 in0.0 mm
01:50 PM 47.7°F8.7°C 29.0°F-1.7°C 48% 4.0 mph N6.4 kmh N 4.0 mph6.4 kmh 30.48 in1032.2 mb 0.00 in0.0 mm 0.00 in0.0 mm 0.00 in0.0 mm
01:55 PM 47.8°F8.8°C 29.1°F-1.6°C 48% 1.0 mph WSW1.6 kmh WSW 1.0 mph1.6 kmh 30.48 in1032.2 mb 0.00 in0.0 mm 0.00 in0.0 mm 0.00 in0.0 mm
02:15 PM 48.1°F8.9°C 29.4°F-1.4°C 48% Calm Calm 1.0 mph1.6 kmh 30.46 in1031.5 mb 0.00 in0.0 mm 0.00 in0.0 mm 0.00 in0.0 mm
02:19 PM 48.2°F9.0°C 28.9°F-1.7°C 47% 2.0 mph WNW3.2 kmh WNW 2.0 mph3.2 kmh 30.46 in1031.5 mb 0.00 in0.0 mm 0.00 in0.0 mm 0.00 in0.0 mm
02:25 PM 48.2°F9.0°C 28.9°F-1.7°C 47% 6.0 mph SW9.7 kmh SW 7.0 mph11.3 kmh 30.46 in1031.5 mb 0.00 in0.0 mm 0.00 in0.0 mm 0.00 in0.0 mm
02:35 PM 47.2°F8.4°C 28.0°F-2.2°C 47% 2.0 mph S3.2 kmh S 2.0 mph3.2 kmh 30.46 in1031.5 mb 0.00 in0.0 mm 0.00 in0.0 mm 0.00 in0.0 mm
02:55 PM 48.3°F9.1°C 28.5°F-1.9°C 46% 2.0 mph SW3.2 kmh SW 3.0 mph4.8 kmh 30.45 in1031.2 mb 0.00 in0.0 mm 0.00 in0.0 mm 0.00 in0.0 mm
03:05 PM 49.2°F9.6°C 28.8°F-1.8°C 45% Calm Calm 2.0 mph3.2 kmh 30.45 in1031.2 mb 0.00 in0.0 mm 0.00 in0.0 mm 0.00 in0.0 mm
03:10 PM 49.6°F9.8°C 29.2°F-1.6°C 45% 3.0 mph NW4.8 kmh NW 4.0 mph6.4 kmh 30.44 in1030.8 mb 0.00 in0.0 mm 0.00 in0.0 mm 0.00 in0.0 mm
03:15 PM 50.0°F10.0°C 29.5°F-1.4°C 45% 3.0 mph NW4.8 kmh NW 3.0 mph4.8 kmh 30.44 in1030.8 mb 0.00 in0.0 mm 0.00 in0.0 mm 0.00 in0.0 mm
03:35 PM 49.4°F9.7°C 28.4°F-2.0°C 44% 1.0 mph ENE1.6 kmh ENE 1.0 mph1.6 kmh 30.43 in1030.5 mb 0.00 in0.0 mm 0.00 in0.0 mm 0.00 in0.0 mm
03:40 PM 49.3°F9.6°C 28.3°F-2.1°C 44% 1.0 mph NNE1.6 kmh NNE 1.0 mph1.6 kmh 30.43 in1030.5 mb 0.00 in0.0 mm 0.00 in0.0 mm 0.00 in0.0 mm
03:45 PM 49.0°F9.4°C 28.1°F-2.2°C 44% 1.0 mph NW1.6 kmh NW 2.0 mph3.2 kmh 30.43 in1030.5 mb 0.00 in0.0 mm 0.00 in0.0 mm 0.00 in0.0 mm
03:50 PM 48.7°F9.3°C 27.8°F-2.3°C 44% 3.0 mph N4.8 kmh N 3.0 mph4.8 kmh 30.43 in1030.5 mb 0.00 in0.0 mm 0.00 in0.0 mm 0.00 in0.0 mm
03:55 PM 48.5°F9.2°C 28.2°F-2.1°C 45% 4.0 mph NW6.4 kmh NW 4.0 mph6.4 kmh 30.43 in1030.5 mb 0.00 in0.0 mm 0.00 in0.0 mm 0.00 in0.0 mm
04:00 PM 48.5°F9.2°C 28.7°F-1.8°C 46% Calm Calm -- 30.43 in1030.5 mb 0.00 in0.0 mm 0.00 in0.0 mm 0.00 in0.0 mm
04:05 PM 48.8°F9.3°C 28.4°F-2.0°C 45% 2.0 mph NE3.2 kmh NE 2.0 mph3.2 kmh 30.42 in1030.1 mb 0.00 in0.0 mm 0.00 in0.0 mm 0.00 in0.0 mm
04:10 PM 48.7°F9.3°C 27.8°F-2.3°C 44% 3.0 mph N4.8 kmh N 3.0 mph4.8 kmh 30.42 in1030.1 mb 0.00 in0.0 mm 0.00 in0.0 mm 0.00 in0.0 mm
04:15 PM 48.7°F9.3°C 28.3°F-2.1°C 45% 3.0 mph NW4.8 kmh NW 3.0 mph4.8 kmh 30.42 in1030.1 mb 0.00 in0.0 mm 0.00 in0.0 mm 0.00 in0.0 mm
04:20 PM 49.0°F9.4°C 28.1°F-2.2°C 44% 4.0 mph N6.4 kmh N 4.0 mph6.4 kmh 30.42 in1030.1 mb 0.00 in0.0 mm 0.00 in0.0 mm 0.00 in0.0 mm
04:25 PM 49.1°F9.5°C 28.2°F-2.1°C 44% 3.0 mph N4.8 kmh N 3.0 mph4.8 kmh 30.42 in1030.1 mb 0.00 in0.0 mm 0.00 in0.0 mm 0.00 in0.0 mm
04:30 PM 49.6°F9.8°C 29.7°F-1.3°C 46% 3.0 mph NNW4.8 kmh NNW 3.0 mph4.8 kmh 30.41 in1029.8 mb 0.00 in0.0 mm 0.00 in0.0 mm 0.00 in0.0 mm
04:35 PM 49.9°F9.9°C 27.7°F-2.4°C 42% 5.0 mph N8.0 kmh N 5.0 mph8.0 kmh 30.41 in1029.8 mb 0.00 in0.0 mm 0.00 in0.0 mm 0.00 in0.0 mm
04:40 PM 49.6°F9.8°C 27.5°F-2.5°C 42% 2.0 mph N3.2 kmh N 2.0 mph3.2 kmh 30.41 in1029.8 mb 0.00 in0.0 mm 0.00 in0.0 mm 0.00 in0.0 mm
04:44 PM 49.5°F9.7°C 28.5°F-1.9°C 44% 2.0 mph NW3.2 kmh NW 2.0 mph3.2 kmh 30.41 in1029.8 mb 0.00 in0.0 mm 0.00 in0.0 mm 0.00 in0.0 mm
04:49 PM 49.6°F9.8°C 28.6°F-1.9°C 44% 4.0 mph WSW6.4 kmh WSW 4.0 mph6.4 kmh 30.41 in1029.8 mb 0.00 in0.0 mm 0.00 in0.0 mm 0.00 in0.0 mm
04:55 PM 49.9°F9.9°C 28.3°F-2.1°C 43% 1.0 mph SW1.6 kmh SW 1.0 mph1.6 kmh 30.41 in1029.8 mb 0.00 in0.0 mm 0.00 in0.0 mm 0.00 in0.0 mm
05:00 PM 50.5°F10.3°C 29.4°F-1.4°C 44% 2.0 mph SW3.2 kmh SW 2.0 mph3.2 kmh 30.40 in1029.5 mb 0.00 in0.0 mm 0.00 in0.0 mm 0.00 in0.0 mm
05:05 PM 50.4°F10.2°C 28.2°F-2.1°C 42% 2.0 mph NE3.2 kmh NE 2.0 mph3.2 kmh 30.40 in1029.5 mb 0.00 in0.0 mm 0.00 in0.0 mm 0.00 in0.0 mm
05:10 PM 50.4°F10.2°C 28.8°F-1.8°C 43% 1.0 mph NW1.6 kmh NW 2.0 mph3.2 kmh 30.40 in1029.5 mb 0.00 in0.0 mm 0.00 in0.0 mm 0.00 in0.0 mm
05:14 PM 50.8°F10.4°C 28.0°F-2.2°C 41% 1.0 mph WNW1.6 kmh WNW 1.0 mph1.6 kmh 30.39 in1029.1 mb 0.00 in0.0 mm 0.00 in0.0 mm 0.00 in0.0 mm
05:20 PM 50.9°F10.5°C 28.1°F-2.2°C 41% 3.0 mph WNW4.8 kmh WNW 3.0 mph4.8 kmh 30.40 in1029.5 mb 0.00 in0.0 mm 0.00 in0.0 mm 0.00 in0.0 mm
05:25 PM 50.6°F10.3°C 27.8°F-2.3°C 41% 1.0 mph NW1.6 kmh NW 2.0 mph3.2 kmh 30.39 in1029.1 mb 0.00 in0.0 mm 0.00 in0.0 mm 0.00 in0.0 mm
05:30 PM 50.5°F10.3°C 27.7°F-2.4°C 41% 3.0 mph NW4.8 kmh NW 3.0 mph4.8 kmh 30.39 in1029.1 mb 0.00 in0.0 mm 0.00 in0.0 mm 0.00 in0.0 mm
05:35 PM 50.2°F10.1°C 27.4°F-2.6°C 41% 1.0 mph N1.6 kmh N 1.0 mph1.6 kmh 30.39 in1029.1 mb 0.00 in0.0 mm 0.00 in0.0 mm 0.00 in0.0 mm
05:40 PM 49.9°F9.9°C 27.2°F-2.7°C 41% 3.0 mph NNE4.8 kmh NNE 3.0 mph4.8 kmh 30.39 in1029.1 mb 0.00 in0.0 mm 0.00 in0.0 mm 0.00 in0.0 mm
05:44 PM 49.6°F9.8°C 27.5°F-2.5°C 42% Calm Calm -- 30.39 in1029.1 mb 0.00 in0.0 mm 0.00 in0.0 mm 0.00 in0.0 mm
05:50 PM 50.1°F10.1°C 29.1°F-1.6°C 44% 1.0 mph NW1.6 kmh NW 1.0 mph1.6 kmh 30.39 in1029.1 mb 0.00 in0.0 mm 0.00 in0.0 mm 0.00 in0.0 mm
05:55 PM 50.2°F10.1°C 28.0°F-2.2°C 42% 2.0 mph SW3.2 kmh SW 3.0 mph4.8 kmh 30.39 in1029.1 mb 0.00 in0.0 mm 0.00 in0.0 mm 0.00 in0.0 mm
06:00 PM 49.9°F9.9°C 27.7°F-2.4°C 42% Calm Calm 1.0 mph1.6 kmh 30.38 in1028.8 mb 0.00 in0.0 mm 0.00 in0.0 mm 0.00 in0.0 mm
06:05 PM 49.6°F9.8°C 27.5°F-2.5°C 42% Calm Calm 1.0 mph1.6 kmh 30.38 in1028.8 mb 0.00 in0.0 mm 0.00 in0.0 mm 0.00 in0.0 mm
06:10 PM 49.6°F9.8°C 27.5°F-2.5°C 42% 1.0 mph E1.6 kmh E 2.0 mph3.2 kmh 30.38 in1028.8 mb 0.00 in0.0 mm 0.00 in0.0 mm 0.00 in0.0 mm
06:14 PM 49.6°F9.8°C 27.5°F-2.5°C 42% 3.0 mph SE4.8 kmh SE 4.0 mph6.4 kmh 30.38 in1028.8 mb 0.00 in0.0 mm 0.00 in0.0 mm 0.00 in0.0 mm
06:19 PM 49.6°F9.8°C 27.5°F-2.5°C 42% 1.0 mph SSE1.6 kmh SSE 1.0 mph1.6 kmh 30.38 in1028.8 mb 0.00 in0.0 mm 0.00 in0.0 mm 0.00 in0.0 mm
06:25 PM 49.6°F9.8°C 27.5°F-2.5°C 42% 3.0 mph NE4.8 kmh NE 3.0 mph4.8 kmh 30.37 in1028.4 mb 0.00 in0.0 mm 0.00 in0.0 mm 0.00 in0.0 mm
06:30 PM 49.5°F9.7°C 28.0°F-2.2°C 43% Calm Calm -- 30.37 in1028.4 mb 0.00 in0.0 mm 0.00 in0.0 mm 0.00 in0.0 mm
06:35 PM 49.6°F9.8°C 27.5°F-2.5°C 42% 6.0 mph SW9.7 kmh SW 6.0 mph9.7 kmh 30.37 in1028.4 mb 0.00 in0.0 mm 0.00 in0.0 mm 0.00 in0.0 mm
06:39 PM 49.5°F9.7°C 27.4°F-2.6°C 42% 3.0 mph SW4.8 kmh SW 3.0 mph4.8 kmh 30.37 in1028.4 mb 0.00 in0.0 mm 0.00 in0.0 mm 0.00 in0.0 mm
06:45 PM 49.3°F9.6°C 27.2°F-2.7°C 42% Calm Calm -- 30.37 in1028.4 mb 0.00 in0.0 mm 0.00 in0.0 mm 0.00 in0.0 mm
06:50 PM 49.3°F9.6°C 27.8°F-2.3°C 43% Calm Calm -- 30.37 in1028.4 mb 0.00 in0.0 mm 0.00 in0.0 mm 0.00 in0.0 mm
06:55 PM 49.5°F9.7°C 28.0°F-2.2°C 43% 1.0 mph WSW1.6 kmh WSW 2.0 mph3.2 kmh 30.37 in1028.4 mb 0.00 in0.0 mm 0.00 in0.0 mm 0.00 in0.0 mm
07:00 PM 49.4°F9.7°C 27.9°F-2.3°C 43% 4.0 mph SW6.4 kmh SW 4.0 mph6.4 kmh 30.37 in1028.4 mb 0.00 in0.0 mm 0.00 in0.0 mm 0.00 in0.0 mm
07:05 PM 49.2°F9.6°C 27.1°F-2.7°C 42% Calm Calm -- 30.37 in1028.4 mb 0.00 in0.0 mm 0.00 in0.0 mm 0.00 in0.0 mm
07:10 PM 49.2°F9.6°C 27.7°F-2.4°C 43% Calm Calm -- 30.37 in1028.4 mb 0.00 in0.0 mm 0.00 in0.0 mm 0.00 in0.0 mm
07:15 PM 49.1°F9.5°C 27.0°F-2.8°C 42% Calm Calm -- 30.37 in1028.4 mb 0.00 in0.0 mm 0.00 in0.0 mm 0.00 in0.0 mm
07:20 PM 49.1°F9.5°C 27.6°F-2.4°C 43% Calm Calm -- 30.37 in1028.4 mb 0.00 in0.0 mm 0.00 in0.0 mm 0.00 in0.0 mm
07:24 PM 49.0°F9.4°C 27.5°F-2.5°C 43% Calm Calm -- 30.37 in1028.4 mb 0.00 in0.0 mm 0.00 in0.0 mm 0.00 in0.0 mm
07:30 PM 48.9°F9.4°C 27.4°F-2.6°C 43% Calm Calm -- 30.37 in1028.4 mb 0.00 in0.0 mm 0.00 in0.0 mm 0.00 in0.0 mm
07:35 PM 48.8°F9.3°C 27.3°F-2.6°C 43% Calm Calm -- 30.37 in1028.4 mb 0.00 in0.0 mm 0.00 in0.0 mm 0.00 in0.0 mm
07:40 PM 48.7°F9.3°C 27.2°F-2.7°C 43% Calm Calm -- 30.37 in1028.4 mb 0.00 in0.0 mm 0.00 in0.0 mm 0.00 in0.0 mm
07:45 PM 48.6°F9.2°C 27.1°F-2.7°C 43% Calm Calm -- 30.37 in1028.4 mb 0.00 in0.0 mm 0.00 in0.0 mm 0.00 in0.0 mm
07:50 PM 48.5°F9.2°C 27.6°F-2.4°C 44% Calm Calm -- 30.37 in1028.4 mb 0.00 in0.0 mm 0.00 in0.0 mm 0.00 in0.0 mm
07:55 PM 48.4°F9.1°C 28.1°F-2.2°C 45% Calm Calm -- 30.37 in1028.4 mb 0.00 in0.0 mm 0.00 in0.0 mm 0.00 in0.0 mm
07:59 PM 48.1°F8.9°C 27.2°F-2.7°C 44% Calm Calm -- 30.37 in1028.4 mb 0.00 in0.0 mm 0.00 in0.0 mm 0.00 in0.0 mm
08:05 PM 47.9°F8.8°C 27.6°F-2.4°C 45% Calm Calm -- 30.37 in1028.4 mb 0.00 in0.0 mm 0.00 in0.0 mm 0.00 in0.0 mm
08:10 PM 47.6°F8.7°C 27.9°F-2.3°C 46% Calm Calm -- 30.37 in1028.4 mb 0.00 in0.0 mm 0.00 in0.0 mm 0.00 in0.0 mm
08:15 PM 47.2°F8.4°C 27.5°F-2.5°C 46% Calm Calm -- 30.37 in1028.4 mb 0.00 in0.0 mm 0.00 in0.0 mm 0.00 in0.0 mm
08:20 PM 46.8°F8.2°C 27.7°F-2.4°C 47% Calm Calm -- 30.37 in1028.4 mb 0.00 in0.0 mm 0.00 in0.0 mm 0.00 in0.0 mm
08:25 PM 46.5°F8.1°C 27.9°F-2.3°C 48% Calm Calm -- 30.37 in1028.4 mb 0.00 in0.0 mm 0.00 in0.0 mm 0.00 in0.0 mm
08:30 PM 46.1°F7.8°C 27.5°F-2.5°C 48% Calm Calm -- 30.37 in1028.4 mb 0.00 in0.0 mm 0.00 in0.0 mm 0.00 in0.0 mm
08:34 PM 45.8°F7.7°C 27.7°F-2.4°C 49% Calm Calm -- 30.36 in1028.1 mb 0.00 in0.0 mm 0.00 in0.0 mm 0.00 in0.0 mm
08:40 PM 45.4°F7.4°C 27.4°F-2.6°C 49% Calm Calm -- 30.36 in1028.1 mb 0.00 in0.0 mm 0.00 in0.0 mm 0.00 in0.0 mm
08:45 PM 45.1°F7.3°C 27.6°F-2.4°C 50% Calm Calm -- 30.36 in1028.1 mb 0.00 in0.0 mm 0.00 in0.0 mm 0.00 in0.0 mm
08:50 PM 44.8°F7.1°C 27.8°F-2.3°C 51% Calm Calm -- 30.36 in1028.1 mb 0.00 in0.0 mm 0.00 in0.0 mm 0.00 in0.0 mm
08:54 PM 44.6°F7.0°C 27.6°F-2.4°C 51% Calm Calm -- 30.37 in1028.4 mb 0.00 in0.0 mm 0.00 in0.0 mm 0.00 in0.0 mm
09:00 PM 44.2°F6.8°C 27.7°F-2.4°C 52% Calm Calm -- 30.36 in1028.1 mb 0.00 in0.0 mm 0.00 in0.0 mm 0.00 in0.0 mm
09:05 PM 44.0°F6.7°C 28.0°F-2.2°C 53% Calm Calm -- 30.36 in1028.1 mb 0.00 in0.0 mm 0.00 in0.0 mm 0.00 in0.0 mm
09:10 PM 43.6°F6.4°C 28.1°F-2.2°C 54% Calm Calm -- 30.36 in1028.1 mb 0.00 in0.0 mm 0.00 in0.0 mm 0.00 in0.0 mm
09:15 PM 43.3°F6.3°C 28.2°F-2.1°C 55% Calm Calm -- 30.36 in1028.1 mb 0.00 in0.0 mm 0.00 in0.0 mm 0.00 in0.0 mm
09:19 PM 42.9°F6.1°C 28.3°F-2.1°C 56% Calm Calm -- 30.36 in1028.1 mb 0.00 in0.0 mm 0.00 in0.0 mm 0.00 in0.0 mm
09:25 PM 42.5°F5.8°C 28.4°F-2.0°C 57% Calm Calm -- 30.36 in1028.1 mb 0.00 in0.0 mm 0.00 in0.0 mm 0.00 in0.0 mm
09:30 PM 42.2°F5.7°C 28.1°F-2.2°C 57% Calm Calm -- 30.36 in1028.1 mb 0.00 in0.0 mm 0.00 in0.0 mm 0.00 in0.0 mm
09:35 PM 42.0°F5.6°C 27.9°F-2.3°C 57% Calm Calm -- 30.36 in1028.1 mb 0.00 in0.0 mm 0.00 in0.0 mm 0.00 in0.0 mm
09:40 PM 41.7°F5.4°C 28.0°F-2.2°C 58% Calm Calm -- 30.36 in1028.1 mb 0.00 in0.0 mm 0.00 in0.0 mm 0.00 in0.0 mm
09:45 PM 41.5°F5.3°C 28.3°F-2.1°C 59% Calm Calm -- 30.36 in1028.1 mb 0.00 in0.0 mm 0.00 in0.0 mm 0.00 in0.0 mm
09:50 PM 41.3°F5.2°C 28.5°F-1.9°C 60% Calm Calm -- 30.36 in1028.1 mb 0.00 in0.0 mm 0.00 in0.0 mm 0.00 in0.0 mm
09:55 PM 41.1°F5.1°C 28.3°F-2.1°C 60% Calm Calm -- 30.36 in1028.1 mb 0.00 in0.0 mm 0.00 in0.0 mm 0.00 in0.0 mm
10:00 PM 40.9°F4.9°C 28.1°F-2.2°C 60% Calm Calm -- 30.36 in1028.1 mb 0.00 in0.0 mm 0.00 in0.0 mm 0.00 in0.0 mm
10:04 PM 40.7°F4.8°C 28.3°F-2.1°C 61% Calm Calm -- 30.36 in1028.1 mb 0.00 in0.0 mm 0.00 in0.0 mm 0.00 in0.0 mm
10:10 PM 40.6°F4.8°C 28.2°F-2.1°C 61% Calm Calm -- 30.36 in1028.1 mb 0.00 in0.0 mm 0.00 in0.0 mm 0.00 in0.0 mm
10:15 PM 40.5°F4.7°C 28.1°F-2.2°C 61% Calm Calm -- 30.36 in1028.1 mb 0.00 in0.0 mm 0.00 in0.0 mm 0.00 in0.0 mm
10:20 PM 40.4°F4.7°C 28.4°F-2.0°C 62% Calm Calm -- 30.36 in1028.1 mb 0.00 in0.0 mm 0.00 in0.0 mm 0.00 in0.0 mm
10:25 PM 40.2°F4.6°C 28.2°F-2.1°C 62% Calm Calm -- 30.36 in1028.1 mb 0.00 in0.0 mm 0.00 in0.0 mm 0.00 in0.0 mm
10:30 PM 40.1°F4.5°C 28.1°F-2.2°C 62% Calm Calm -- 30.36 in1028.1 mb 0.00 in0.0 mm 0.00 in0.0 mm 0.00 in0.0 mm
10:35 PM 40.0°F4.4°C 28.1°F-2.2°C 62% Calm Calm -- 30.36 in1028.1 mb 0.00 in0.0 mm 0.00 in0.0 mm 0.00 in0.0 mm
10:40 PM 39.9°F4.4°C 28.0°F-2.2°C 62% Calm Calm -- 30.36 in1028.1 mb 0.00 in0.0 mm 0.00 in0.0 mm 0.00 in0.0 mm
10:45 PM 39.8°F4.3°C 28.3°F-2.1°C 63% Calm Calm -- 30.36 in1028.1 mb 0.00 in0.0 mm 0.00 in0.0 mm 0.00 in0.0 mm
10:50 PM 39.7°F4.3°C 28.2°F-2.1°C 63% Calm Calm -- 30.36 in1028.1 mb 0.00 in0.0 mm 0.00 in0.0 mm 0.00 in0.0 mm
10:55 PM 39.5°F4.2°C 28.0°F-2.2°C 63% Calm Calm -- 30.35 in1027.8 mb 0.00 in0.0 mm 0.00 in0.0 mm 0.00 in0.0 mm
11:00 PM 39.3°F4.1°C 28.2°F-2.1°C 64% Calm Calm -- 30.35 in1027.8 mb 0.00 in0.0 mm 0.00 in0.0 mm 0.00 in0.0 mm
11:05 PM 39.1°F3.9°C 28.0°F-2.2°C 64% Calm Calm -- 30.35 in1027.8 mb 0.00 in0.0 mm 0.00 in0.0 mm 0.00 in0.0 mm
11:10 PM 39.0°F3.9°C 28.3°F-2.1°C 65% Calm Calm -- 30.35 in1027.8 mb 0.00 in0.0 mm 0.00 in0.0 mm 0.00 in0.0 mm
11:15 PM 38.8°F3.8°C 28.1°F-2.2°C 65% Calm Calm -- 30.35 in1027.8 mb 0.00 in0.0 mm 0.00 in0.0 mm 0.00 in0.0 mm
11:20 PM 38.6°F3.7°C 27.9°F-2.3°C 65% Calm Calm -- 30.35 in1027.8 mb 0.00 in0.0 mm 0.00 in0.0 mm 0.00 in0.0 mm
11:25 PM 38.5°F3.6°C 28.1°F-2.2°C 66% Calm Calm -- 30.35 in1027.8 mb 0.00 in0.0 mm 0.00 in0.0 mm 0.00 in0.0 mm
11:30 PM 38.3°F3.5°C 28.0°F-2.2°C 66% Calm Calm -- 30.35 in1027.8 mb 0.00 in0.0 mm 0.00 in0.0 mm 0.00 in0.0 mm
11:35 PM 38.2°F3.4°C 27.9°F-2.3°C 66% Calm Calm -- 30.35 in1027.8 mb 0.00 in0.0 mm 0.00 in0.0 mm 0.00 in0.0 mm
11:40 PM 38.2°F3.4°C 28.2°F-2.1°C 67% Calm Calm -- 30.35 in1027.8 mb 0.00 in0.0 mm 0.00 in0.0 mm 0.00 in0.0 mm
11:45 PM 38.2°F3.4°C 28.2°F-2.1°C 67% Calm Calm -- 30.35 in1027.8 mb 0.00 in0.0 mm 0.00 in0.0 mm 0.00 in0.0 mm
11:50 PM 38.1°F3.4°C 28.1°F-2.2°C 67% Calm Calm -- 30.35 in1027.8 mb 0.00 in0.0 mm 0.00 in0.0 mm 0.00 in0.0 mm
11:54 PM 38.1°F3.4°C 28.1°F-2.2°C 67% Calm Calm -- 30.35 in1027.8 mb 0.00 in0.0 mm 0.00 in0.0 mm 0.00 in0.0 mm